Time;durP1;ratioP1;P1;durP2;ratioP2;P2;SDS_P1;SDS_P2;PMS_P1;PMS_P2;Temp;Humidity;BMP_temperature;BMP_pressure;BME280_temperature;BME280_humidity;BME280_pressure;Samples;Min_cycle;Max_cycle;Signal;HPM_P1;HPM_P2
2021/06/01 00:01:41;;;;;;;;;;;6.40;99.90;;;;;;4981420;28;19926;-95
2021/06/01 00:04:09;;;;;;;;;;;6.30;99.90;;;;;;4981418;28;19926;-94
2021/06/01 00:06:36;;;;;;;;;;;6.30;99.90;;;;;;4981515;28;20013;-95
2021/06/01 00:09:04;;;;;;;;;;;6.20;99.90;;;;;;4988840;28;19909;-95
2021/06/01 00:11:31;;;;;;;;;;;6.20;99.90;;;;;;5004023;28;19930;-95
2021/06/01 00:13:59;;;;;;;;;;;6.20;99.90;;;;;;4993137;28;19933;-95
2021/06/01 00:16:26;;;;;;;;;;;6.20;99.90;;;;;;4981209;28;19930;-95
2021/06/01 00:22:22;;;;;;;;;;;6.20;99.90;;;;;;4998512;28;20293;-95
2021/06/01 00:24:49;;;;;;;;;;;6.20;99.90;;;;;;4981439;28;20465;-94
2021/06/01 00:27:16;;;;;;;;;;;6.20;99.90;;;;;;4980658;28;20046;-95
2021/06/01 00:29:43;;;;;;;;;;;6.10;99.90;;;;;;4980976;28;20380;-94
2021/06/01 00:32:11;;;;;;;;;;;6.00;99.90;;;;;;4981577;28;19926;-94
2021/06/01 00:34:38;;;;;;;;;;;6.00;99.90;;;;;;4980624;28;19926;-95
2021/06/01 00:37:05;;;;;;;;;;;6.00;99.90;;;;;;4980978;28;19926;-95
2021/06/01 00:39:32;;;;;;;;;;;6.00;99.90;;;;;;4980656;28;19933;-94
2021/06/01 00:41:59;;;;;;;;;;;6.00;99.90;;;;;;4980388;28;19926;-95
2021/06/01 00:44:26;;;;;;;;;;;5.90;99.90;;;;;;4980950;28;19929;-94
2021/06/01 00:46:53;;;;;;;;;;;5.90;99.90;;;;;;4980659;28;20388;-95
2021/06/01 00:49:20;;;;;;;;;;;5.90;99.90;;;;;;4981281;28;19930;-96
2021/06/01 00:51:49;;;;;;;;;;;5.90;99.90;;;;;;4981284;28;20398;-95
2021/06/01 00:54:16;;;;;;;;;;;5.90;99.90;;;;;;4980217;28;20285;-95
2021/06/01 00:56:43;;;;;;;;;;;5.90;99.90;;;;;;4980475;28;19925;-95
2021/06/01 00:59:10;;;;;;;;;;;5.90;99.90;;;;;;4980601;28;19926;-95
2021/06/01 01:01:37;;;;;;;;;;;5.80;99.90;;;;;;4980817;28;19929;-96
2021/06/01 01:04:04;;;;;;;;;;;5.80;99.90;;;;;;4980888;28;20400;-96
2021/06/01 01:06:55;;;;;;;;;;;5.80;99.90;;;;;;4980660;28;19925;-95
2021/06/01 01:09:24;;;;;;;;;;;5.70;99.90;;;;;;4980479;28;19925;-95
2021/06/01 01:11:57;;;;;;;;;;;5.80;99.90;;;;;;4980451;28;19926;-95
2021/06/01 01:14:30;;;;;;;;;;;5.70;99.90;;;;;;4980385;28;20358;-96
2021/06/01 01:17:00;;;;;;;;;;;5.70;99.90;;;;;;4979841;28;19937;-95
2021/06/01 01:19:46;;;;;;;;;;;5.70;99.90;;;;;;4980115;28;19957;-95
2021/06/01 01:22:13;;;;;;;;;;;5.70;99.90;;;;;;4980187;28;19937;-95
2021/06/01 01:24:59;;;;;;;;;;;5.70;99.90;;;;;;4997270;28;19926;-95
2021/06/01 01:27:32;;;;;;;;;;;5.70;99.90;;;;;;4980043;28;19933;-95
2021/06/01 01:30:00;;;;;;;;;;;5.70;99.90;;;;;;4980076;28;20030;-96
2021/06/01 01:32:31;;;;;;;;;;;5.80;99.90;;;;;;4979846;28;19932;-95
2021/06/01 01:34:59;;;;;;;;;;;5.80;99.90;;;;;;4979707;28;19926;-95
2021/06/01 01:37:27;;;;;;;;;;;5.80;99.90;;;;;;4980037;28;20407;-95
2021/06/01 01:39:59;;;;;;;;;;;5.80;99.90;;;;;;4980069;28;19926;-94
2021/06/01 01:42:39;;;;;;;;;;;5.80;99.90;;;;;;4979812;28;20391;-95
2021/06/01 01:45:08;;;;;;;;;;;5.80;99.90;;;;;;4979619;28;19926;-95
2021/06/01 01:50:14;;;;;;;;;;;5.60;99.90;;;;;;4997372;28;20231;-95
2021/06/01 01:56:03;;;;;;;;;;;5.50;99.90;;;;;;4996829;28;20436;-95
2021/06/01 01:58:30;;;;;;;;;;;5.40;99.90;;;;;;4978797;28;19925;-95
2021/06/01 02:00:57;;;;;;;;;;;5.40;99.90;;;;;;4994341;28;19925;-95
2021/06/01 02:03:27;;;;;;;;;;;5.30;99.90;;;;;;5001266;28;20299;-95
2021/06/01 02:05:54;;;;;;;;;;;5.20;99.90;;;;;;5000185;28;19920;-95
2021/06/01 02:11:43;;;;;;;;;;;5.10;99.90;;;;;;5015958;28;19921;-94
2021/06/01 02:14:10;;;;;;;;;;;5.10;99.90;;;;;;4995316;28;19926;-95
2021/06/01 02:16:38;;;;;;;;;;;5.00;99.90;;;;;;4986873;28;19967;-94
2021/06/01 02:19:07;;;;;;;;;;;5.00;99.90;;;;;;4979347;28;19926;-94
2021/06/01 02:24:15;;;;;;;;;;;4.90;99.90;;;;;;4995967;28;19933;-94
2021/06/01 02:30:18;;;;;;;;;;;4.90;99.90;;;;;;4996435;28;19952;-94
2021/06/01 02:32:46;;;;;;;;;;;5.00;99.90;;;;;;4988731;28;19969;-94
2021/06/01 02:35:45;;;;;;;;;;;5.10;99.90;;;;;;4991267;28;20028;-94
2021/06/01 02:38:12;;;;;;;;;;;5.10;99.90;;;;;;4887059;29;19939;-95
2021/06/01 02:44:01;;;;;;;;;;;5.20;99.90;;;;;;4898688;29;19967;-94
2021/06/01 02:46:28;;;;;;;;;;;5.20;99.90;;;;;;4882849;29;20320;-95
2021/06/01 02:48:56;;;;;;;;;;;5.20;99.90;;;;;;4882849;29;19932;-95
2021/06/01 02:51:23;;;;;;;;;;;5.20;99.90;;;;;;4882740;29;19927;-95
2021/06/01 02:53:51;;;;;;;;;;;5.10;99.90;;;;;;4883051;29;19927;-95
2021/06/01 02:56:19;;;;;;;;;;;5.10;99.90;;;;;;4882992;29;19927;-94
2021/06/01 02:58:46;;;;;;;;;;;5.10;99.90;;;;;;4883414;29;19934;-95
2021/06/01 03:01:14;;;;;;;;;;;5.10;99.90;;;;;;4883054;29;20356;-94
2021/06/01 03:03:46;;;;;;;;;;;5.10;99.90;;;;;;4899863;29;20295;-95
2021/06/01 03:06:18;;;;;;;;;;;5.10;99.90;;;;;;4886265;29;19927;-95
2021/06/01 03:08:44;;;;;;;;;;;5.10;99.90;;;;;;4886406;29;20265;-93
2021/06/01 03:11:14;;;;;;;;;;;5.10;99.90;;;;;;4886218;29;19932;-94
2021/06/01 03:13:41;;;;;;;;;;;5.10;99.90;;;;;;4895307;28;19927;-94
2021/06/01 03:16:08;;;;;;;;;;;5.10;99.90;;;;;;4982717;28;19933;-94
2021/06/01 03:18:36;;;;;;;;;;;5.10;99.90;;;;;;4982561;28;19955;-95
2021/06/01 03:21:05;;;;;;;;;;;5.20;99.90;;;;;;4982308;28;19926;-95
2021/06/01 03:23:32;;;;;;;;;;;5.20;99.90;;;;;;4983132;28;20334;-94
2021/06/01 03:25:59;;;;;;;;;;;5.20;99.90;;;;;;4982655;28;19926;-94
2021/06/01 03:28:26;;;;;;;;;;;5.20;99.90;;;;;;4982304;28;19972;-95
2021/06/01 03:30:54;;;;;;;;;;;5.30;99.90;;;;;;4982974;28;20273;-95
2021/06/01 03:33:21;;;;;;;;;;;5.30;99.90;;;;;;4981685;28;20357;-94
2021/06/01 03:35:48;;;;;;;;;;;5.40;99.90;;;;;;4981340;28;19925;-95
2021/06/01 03:38:15;;;;;;;;;;;5.40;99.90;;;;;;4981723;28;20329;-95
2021/06/01 03:40:43;;;;;;;;;;;5.50;99.90;;;;;;4981339;28;19926;-95
2021/06/01 03:43:10;;;;;;;;;;;5.50;99.90;;;;;;4981662;28;19926;-95
2021/06/01 03:45:37;;;;;;;;;;;5.50;99.90;;;;;;4981351;28;19930;-94
2021/06/01 03:51:26;;;;;;;;;;;5.60;99.90;;;;;;4998492;28;19976;-94
2021/06/01 03:53:54;;;;;;;;;;;5.60;99.90;;;;;;4981936;28;19933;-96
2021/06/01 03:56:21;;;;;;;;;;;5.70;99.90;;;;;;5003307;28;19978;-96
2021/06/01 03:58:48;;;;;;;;;;;5.70;99.90;;;;;;5000517;28;19973;-95
2021/06/01 04:01:15;;;;;;;;;;;5.70;99.90;;;;;;4981742;28;19926;-95
2021/06/01 04:03:42;;;;;;;;;;;5.80;99.90;;;;;;4981938;28;19980;-95
2021/06/01 04:06:09;;;;;;;;;;;5.80;99.90;;;;;;4981068;28;19933;-95
2021/06/01 04:08:37;;;;;;;;;;;5.90;99.90;;;;;;4981304;28;20374;-95
2021/06/01 04:11:04;;;;;;;;;;;5.90;99.90;;;;;;4981144;28;19930;-95
2021/06/01 04:13:31;;;;;;;;;;;6.00;99.90;;;;;;4988048;28;19914;-94
2021/06/01 04:15:58;;;;;;;;;;;6.00;99.90;;;;;;4984567;28;19932;-95
2021/06/01 04:18:25;;;;;;;;;;;6.20;99.90;;;;;;5001202;28;19925;-96
2021/06/01 04:20:53;;;;;;;;;;;6.20;99.90;;;;;;4994986;28;20448;-95
2021/06/01 04:23:19;;;;;;;;;;;6.30;99.90;;;;;;4991265;28;19926;-95
2021/06/01 04:25:46;;;;;;;;;;;6.30;99.90;;;;;;4980655;28;19956;-94
2021/06/01 04:28:13;;;;;;;;;;;6.50;99.90;;;;;;4981040;28;20366;-94
2021/06/01 04:30:44;;;;;;;;;;;6.50;99.90;;;;;;4980618;28;19926;-95
2021/06/01 04:33:11;;;;;;;;;;;6.60;99.90;;;;;;4980378;28;19932;-94
2021/06/01 04:35:46;;;;;;;;;;;6.70;99.90;;;;;;4982736;28;19926;-96
2021/06/01 04:38:14;;;;;;;;;;;6.80;99.90;;;;;;4982338;28;19925;-94
2021/06/01 04:40:41;;;;;;;;;;;6.90;99.90;;;;;;4981066;28;19932;-94
2021/06/01 04:43:08;;;;;;;;;;;6.90;99.90;;;;;;4980976;28;19929;-94
2021/06/01 04:45:35;;;;;;;;;;;7.00;99.90;;;;;;4981689;28;20361;-95
2021/06/01 04:48:02;;;;;;;;;;;7.10;99.90;;;;;;4980450;28;20359;-95
2021/06/01 04:50:29;;;;;;;;;;;7.10;99.90;;;;;;4980344;28;20377;-94
2021/06/01 04:52:56;;;;;;;;;;;7.20;99.90;;;;;;4980247;28;19933;-95
2021/06/01 04:55:23;;;;;;;;;;;7.20;99.90;;;;;;4980233;28;20469;-96
2021/06/01 04:57:51;;;;;;;;;;;7.30;99.90;;;;;;4980541;28;19926;-95
2021/06/01 05:00:18;;;;;;;;;;;7.30;99.90;;;;;;4980342;28;19936;-96
2021/06/01 05:02:46;;;;;;;;;;;7.20;99.90;;;;;;4980086;28;19933;-94
2021/06/01 05:05:14;;;;;;;;;;;7.20;99.90;;;;;;4980890;28;19925;-96
2021/06/01 05:07:41;;;;;;;;;;;7.20;99.90;;;;;;4980013;28;20281;-95
2021/06/01 05:10:08;;;;;;;;;;;7.30;99.90;;;;;;4979832;28;19944;-94
2021/06/01 05:12:35;;;;;;;;;;;7.60;99.90;;;;;;4979779;28;20398;-94
2021/06/01 05:15:02;;;;;;;;;;;7.90;99.90;;;;;;4980259;28;20249;-96
2021/06/01 05:17:29;;;;;;;;;;;8.00;99.90;;;;;;4979664;28;19929;-94
2021/06/01 05:19:56;;;;;;;;;;;8.00;99.90;;;;;;4980020;28;19933;-93
2021/06/01 05:22:23;;;;;;;;;;;8.10;99.90;;;;;;4980819;28;19926;-95
2021/06/01 05:24:50;;;;;;;;;;;8.00;99.90;;;;;;4980824;28;19925;-95
2021/06/01 05:27:17;;;;;;;;;;;7.90;99.90;;;;;;4980026;28;20361;-96
2021/06/01 05:29:52;;;;;;;;;;;8.20;99.90;;;;;;4980318;28;19930;-96
2021/06/01 05:35:04;;;;;;;;;;;8.60;99.90;;;;;;4997337;28;20277;-95
2021/06/01 05:37:35;;;;;;;;;;;8.70;99.90;;;;;;4979694;28;19925;-96
2021/06/01 05:40:02;;;;;;;;;;;8.80;99.90;;;;;;4979667;28;19925;-95
2021/06/01 05:42:29;;;;;;;;;;;9.00;99.90;;;;;;4979987;28;19932;-96
2021/06/01 05:44:56;;;;;;;;;;;9.30;99.90;;;;;;4980822;28;19930;-96
2021/06/01 05:47:24;;;;;;;;;;;9.60;99.90;;;;;;4985900;28;19916;-96
2021/06/01 05:49:51;;;;;;;;;;;10.80;99.90;;;;;;5002395;28;19973;-95
2021/06/01 05:52:18;;;;;;;;;;;12.70;99.90;;;;;;4996456;28;19925;-95
2021/06/01 05:54:45;;;;;;;;;;;14.90;99.90;;;;;;4982487;28;19941;-96
2021/06/01 05:57:13;;;;;;;;;;;17.00;96.70;;;;;;4986317;28;19936;-96
2021/06/01 05:59:41;;;;;;;;;;;20.10;85.00;;;;;;4987580;28;19953;-96
2021/06/01 06:02:08;;;;;;;;;;;22.30;67.40;;;;;;4969702;28;19932;-96
2021/06/01 06:04:35;;;;;;;;;;;24.30;55.30;;;;;;4984995;28;19925;-96
2021/06/01 06:07:03;;;;;;;;;;;25.30;51.20;;;;;;5003713;28;19926;-96
2021/06/01 06:09:33;;;;;;;;;;;26.40;47.00;;;;;;4987385;28;19929;-96
2021/06/01 06:12:01;;;;;;;;;;;27.40;45.90;;;;;;4982330;28;19926;-96
2021/06/01 06:14:29;;;;;;;;;;;27.20;42.80;;;;;;4983905;28;20024;-96
2021/06/01 06:17:23;;;;;;;;;;;26.60;41.90;;;;;;4972839;28;19926;-96
2021/06/01 06:20:11;;;;;;;;;;;26.50;40.60;;;;;;5002885;28;19930;-96
2021/06/01 06:22:39;;;;;;;;;;;26.60;41.50;;;;;;4980931;28;19926;-96
2021/06/01 06:25:09;;;;;;;;;;;27.70;39.40;;;;;;4982698;28;20380;-96
2021/06/01 06:27:36;;;;;;;;;;;27.70;39.10;;;;;;4991720;28;19926;-96
2021/06/01 06:30:07;;;;;;;;;;;27.30;39.50;;;;;;4996210;28;19945;-95
2021/06/01 06:36:04;;;;;;;;;;;25.00;40.80;;;;;;5018927;28;19921;-95
2021/06/01 06:42:00;;;;;;;;;;;26.10;39.60;;;;;;5009651;28;20397;-94
2021/06/01 06:44:27;;;;;;;;;;;26.70;38.90;;;;;;4988259;28;19925;-95
2021/06/01 06:49:38;;;;;;;;;;;26.20;39.50;;;;;;5000173;28;20047;-94
2021/06/01 06:52:11;;;;;;;;;;;25.60;39.50;;;;;;4982676;28;19926;-95
2021/06/01 06:54:39;;;;;;;;;;;24.00;44.10;;;;;;4983940;28;20316;-94
2021/06/01 06:57:06;;;;;;;;;;;22.60;46.80;;;;;;4983206;28;19932;-93
2021/06/01 06:59:33;;;;;;;;;;;22.30;45.70;;;;;;4982502;28;20046;-93
2021/06/01 07:02:00;;;;;;;;;;;21.60;46.90;;;;;;4982671;28;20480;-93
2021/06/01 07:04:27;;;;;;;;;;;21.70;47.90;;;;;;4982772;28;19932;-95
2021/06/01 07:06:55;;;;;;;;;;;22.20;46.70;;;;;;4983109;28;19933;-96
2021/06/01 07:09:22;;;;;;;;;;;22.60;45.60;;;;;;4983258;28;20388;-91
2021/06/01 07:11:49;;;;;;;;;;;22.60;48.50;;;;;;4999625;28;19929;-93
2021/06/01 07:14:16;;;;;;;;;;;22.90;46.90;;;;;;4986555;28;19982;-96
2021/06/01 07:16:44;;;;;;;;;;;21.10;45.00;;;;;;4982759;28;19926;-95
2021/06/01 07:19:12;;;;;;;;;;;20.60;50.40;;;;;;4983620;28;20338;-95
2021/06/01 07:21:39;;;;;;;;;;;20.20;51.60;;;;;;4982465;28;19926;-94
2021/06/01 07:24:06;;;;;;;;;;;19.70;50.80;;;;;;4982749;28;19933;-93
2021/06/01 07:26:33;;;;;;;;;;;19.40;55.20;;;;;;4983085;28;19932;-96
2021/06/01 07:29:00;;;;;;;;;;;18.90;56.40;;;;;;4982181;28;19956;-94
2021/06/01 07:31:27;;;;;;;;;;;18.70;53.90;;;;;;4983093;28;19926;-94
2021/06/01 07:33:54;;;;;;;;;;;18.00;57.10;;;;;;4983488;28;19925;-92
2021/06/01 07:36:21;;;;;;;;;;;17.90;57.30;;;;;;4981820;28;20361;-95
2021/06/01 07:38:49;;;;;;;;;;;17.90;60.30;;;;;;4986246;28;19933;-93
2021/06/01 07:41:17;;;;;;;;;;;17.80;56.90;;;;;;5065549;23;19910;-95
2021/06/01 07:43:47;;;;;;;;;;;17.40;58.00;;;;;;4969707;28;19941;-96
2021/06/01 07:46:20;;;;;;;;;;;17.10;56.70;;;;;;4972626;28;19953;-90
2021/06/01 07:48:47;;;;;;;;;;;16.90;58.30;;;;;;4962971;28;20310;-91
2021/06/01 07:51:14;;;;;;;;;;;16.90;58.40;;;;;;4961924;28;19926;-89
2021/06/01 07:53:41;;;;;;;;;;;16.90;59.60;;;;;;4961934;28;19926;-90
2021/06/01 07:56:10;;;;;;;;;;;16.90;57.40;;;;;;4978747;28;19926;-90
2021/06/01 07:58:37;;;;;;;;;;;16.50;60.20;;;;;;4962589;28;19926;-90
2021/06/01 08:01:04;;;;;;;;;;;16.00;56.10;;;;;;4962093;28;19927;-89
2021/06/01 08:03:31;;;;;;;;;;;16.00;56.70;;;;;;4962157;28;19926;-90
2021/06/01 08:05:58;;;;;;;;;;;16.10;56.40;;;;;;4961566;28;19926;-89
2021/06/01 08:08:25;;;;;;;;;;;15.90;57.20;;;;;;4961747;28;19929;-90
2021/06/01 08:10:52;;;;;;;;;;;16.00;66.40;;;;;;4961422;28;19934;-89
2021/06/01 08:13:19;;;;;;;;;;;16.10;59.70;;;;;;4961819;28;20389;-89
2021/06/01 08:15:50;;;;;;;;;;;16.00;58.60;;;;;;4961701;28;19973;-89
2021/06/01 08:18:19;;;;;;;;;;;15.80;54.60;;;;;;4962239;28;19926;-92
2021/06/01 08:23:29;;;;;;;;;;;15.80;64.10;;;;;;4979376;28;19996;-95
2021/06/01 08:25:56;;;;;;;;;;;15.90;57.40;;;;;;4965211;28;19933;-96
2021/06/01 08:28:28;;;;;;;;;;;16.00;55.70;;;;;;5152189;23;19937;31
2021/06/01 08:31:00;;;;;;;;;;;16.20;57.20;;;;;;4945670;29;19937;-95
2021/06/01 08:33:29;;;;;;;;;;;16.30;56.30;;;;;;4959618;29;19926;-96
2021/06/01 08:35:58;;;;;;;;;;;16.20;56.10;;;;;;4960443;29;19973;-93
2021/06/01 08:38:25;;;;;;;;;;;16.10;60.10;;;;;;4975889;28;19958;-96
2021/06/01 08:40:55;;;;;;;;;;;16.00;57.30;;;;;;4979174;28;19927;-94
2021/06/01 08:49:03;;;;;;;;;;;15.90;54.90;;;;;;794834;23;20185;-90
2021/06/01 08:51:31;;;;;;;;;;;15.80;57.00;;;;;;4960803;29;19989;-95
2021/06/01 08:53:58;;;;;;;;;;;15.80;56.80;;;;;;4943147;29;19926;-96
2021/06/01 08:56:26;;;;;;;;;;;16.10;63.60;;;;;;4958660;29;20277;-89
2021/06/01 08:58:53;;;;;;;;;;;16.10;59.80;;;;;;4941869;29;20009;-87
2021/06/01 09:01:25;;;;;;;;;;;16.30;60.30;;;;;;4948634;29;20255;-96
2021/06/01 09:03:54;;;;;;;;;;;16.60;55.40;;;;;;4944265;29;20414;-95
2021/06/01 09:30:23;;;;;;;;;;;17.40;54.50;;;;;;5006989;28;19924;-96
2021/06/01 09:32:50;;;;;;;;;;;16.60;54.10;;;;;;4989643;28;19926;-95
2021/06/01 09:38:47;;;;;;;;;;;16.40;59.10;;;;;;4988581;28;19971;-91
2021/06/01 09:41:17;;;;;;;;;;;16.70;56.40;;;;;;4984093;28;19910;-96
2021/06/01 09:43:50;;;;;;;;;;;17.10;55.10;;;;;;4978785;28;19933;-94
2021/06/01 09:46:21;;;;;;;;;;;17.00;54.50;;;;;;4978283;28;19927;-96
2021/06/01 09:48:49;;;;;;;;;;;16.90;56.10;;;;;;4977288;28;19933;-96
2021/06/01 09:51:25;;;;;;;;;;;17.00;56.90;;;;;;4976809;28;19926;-95
2021/06/01 09:53:54;;;;;;;;;;;17.20;54.80;;;;;;4976587;28;20243;-94
2021/06/01 09:56:21;;;;;;;;;;;17.20;55.80;;;;;;4976685;28;20276;-96
2021/06/01 09:58:48;;;;;;;;;;;17.30;55.80;;;;;;4976907;28;19933;-96
2021/06/01 10:01:17;;;;;;;;;;;17.40;61.20;;;;;;4978005;28;20301;-95
2021/06/01 10:03:47;;;;;;;;;;;17.60;60.10;;;;;;4976693;28;20380;-96
2021/06/01 10:06:14;;;;;;;;;;;17.80;60.80;;;;;;4976500;28;19926;-95
2021/06/01 10:08:44;;;;;;;;;;;18.10;59.60;;;;;;4976287;28;20005;-93
2021/06/01 10:11:12;;;;;;;;;;;18.00;55.80;;;;;;4977775;28;19926;-96
2021/06/01 10:13:39;;;;;;;;;;;17.80;56.70;;;;;;4976051;28;19926;-96
2021/06/01 10:16:08;;;;;;;;;;;17.50;59.50;;;;;;4977733;28;20024;-95
2021/06/01 10:18:36;;;;;;;;;;;17.30;53.50;;;;;;4977207;28;19926;-95
2021/06/01 10:21:05;;;;;;;;;;;17.00;58.50;;;;;;4977076;28;19926;-96
2021/06/01 10:29:45;;;;;;;;;;;17.30;59.60;;;;;;5006574;28;19920;-95
2021/06/01 10:32:13;;;;;;;;;;;17.60;58.50;;;;;;4986963;28;19937;-94
2021/06/01 10:34:42;;;;;;;;;;;17.70;58.90;;;;;;4979189;28;19926;-92
2021/06/01 10:43:03;;;;;;;;;;;17.60;53.40;;;;;;4996012;28;20014;-94
2021/06/01 10:51:02;;;;;;;;;;;17.70;56.80;;;;;;5000751;28;19925;-92
2021/06/01 10:53:47;;;;;;;;;;;17.90;58.80;;;;;;4983623;28;19926;-93
2021/06/01 10:56:14;;;;;;;;;;;18.00;58.00;;;;;;4980126;28;19926;-93
2021/06/01 10:58:43;;;;;;;;;;;18.30;57.00;;;;;;4979029;28;19933;-94
2021/06/01 11:04:30;;;;;;;;;;;18.40;53.90;;;;;;5009459;28;19960;-93
2021/06/01 11:07:09;;;;;;;;;;;18.50;51.90;;;;;;4990201;28;19925;-95
2021/06/01 11:09:37;;;;;;;;;;;18.50;56.10;;;;;;4983153;28;19926;-92
2021/06/01 11:12:35;;;;;;;;;;;18.70;54.90;;;;;;4979420;28;19933;-94
2021/06/01 11:15:18;;;;;;;;;;;18.60;53.80;;;;;;4995667;28;19973;-94
2021/06/01 11:17:44;;;;;;;;;;;18.90;53.20;;;;;;4978930;28;19972;-94
2021/06/01 11:20:17;;;;;;;;;;;18.70;51.00;;;;;;4982112;28;20321;-93
2021/06/01 11:23:12;;;;;;;;;;;18.90;54.50;;;;;;4979271;28;19925;-94
2021/06/01 11:33:59;;;;;;;;;;;18.90;50.80;;;;;;4999891;28;20354;-96
2021/06/01 11:36:36;;;;;;;;;;;18.60;54.10;;;;;;4982779;28;20286;-95
2021/06/01 11:39:23;;;;;;;;;;;19.00;55.70;;;;;;4982865;28;20344;-96
2021/06/01 11:45:19;;;;;;;;;;;19.60;53.30;;;;;;4953258;29;19945;-96
2021/06/01 11:54:50;;;;;;;;;;;20.40;50.10;;;;;;4946231;29;19938;-96
2021/06/01 12:02:01;;;;;;;;;;;20.20;46.50;;;;;;4939447;29;20445;-96
2021/06/01 12:04:13;;;;;;;;;;;21.30;49.50;;;;;;4939607;29;20286;-95
2021/06/01 12:18:14;;;;;;;;;;;20.90;47.80;;;;;;4940651;29;19935;-96
2021/06/01 12:20:44;;;;;;;;;;;21.20;51.80;;;;;;4955482;28;19972;-96
2021/06/01 12:23:27;;;;;;;;;;;21.50;48.80;;;;;;4988817;28;19997;-96
2021/06/01 12:25:58;;;;;;;;;;;21.50;52.80;;;;;;4981447;28;19926;-96
2021/06/01 12:31:18;;;;;;;;;;;22.30;44.70;;;;;;5000947;28;19925;-96
2021/06/01 12:34:15;;;;;;;;;;;22.10;45.50;;;;;;4981487;28;19930;-96
2021/06/01 12:41:39;;;;;;;;;;;22.80;47.40;;;;;;5153359;23;19960;-95
2021/06/01 12:43:05;;;;;;;;;;;24.10;50.10;;;;;;5000335;28;19987;-95
2021/06/01 13:46:30;;;;;;;;;;;23.30;48.90;;;;;;4886548;29;19931;-95
2021/06/01 13:49:36;;;;;;;;;;;23.30;47.60;;;;;;4889462;29;19928;-94
2021/06/01 13:52:31;;;;;;;;;;;22.80;47.10;;;;;;4836185;29;19932;-96
2021/06/01 13:55:42;;;;;;;;;;;22.60;51.70;;;;;;4837155;29;20005;-95
2021/06/01 13:59:03;;;;;;;;;;;22.50;49.80;;;;;;4842107;29;19975;-96
2021/06/01 14:02:13;;;;;;;;;;;21.90;50.60;;;;;;4786563;30;19930;-95
2021/06/01 16:15:17;;;;;;;;;;;22.90;47.10;;;;;;4947788;29;20017;-96
2021/06/01 16:23:35;;;;;;;;;;;22.40;49.50;;;;;;4947453;29;19931;-96
2021/06/01 17:06:37;;;;;;;;;;;18.10;64.30;;;;;;5020572;28;19910;-95
2021/06/01 17:12:18;;;;;;;;;;;17.60;69.70;;;;;;4997704;28;20316;-94
2021/06/01 17:14:59;;;;;;;;;;;17.20;69.70;;;;;;4981194;28;20366;-94
2021/06/01 17:17:34;;;;;;;;;;;16.90;70.20;;;;;;4980717;28;20258;-96
2021/06/01 17:21:03;;;;;;;;;;;16.60;70.40;;;;;;4980733;28;20009;-95
2021/06/01 17:35:36;;;;;;;;;;;15.60;75.30;;;;;;4998929;28;19926;-94
2021/06/01 17:38:04;;;;;;;;;;;15.30;79.20;;;;;;4886734;29;20475;-95
2021/06/01 17:40:32;;;;;;;;;;;15.00;80.30;;;;;;4886608;29;20328;-92
2021/06/01 17:43:03;;;;;;;;;;;14.70;76.50;;;;;;4887703;29;19931;-95
2021/06/01 17:45:36;;;;;;;;;;;14.60;81.70;;;;;;4886149;29;19934;-94
2021/06/01 17:48:05;;;;;;;;;;;14.50;82.90;;;;;;4886471;29;20018;-93
2021/06/01 17:50:35;;;;;;;;;;;14.40;82.90;;;;;;4915918;29;19918;-92
2021/06/01 17:53:08;;;;;;;;;;;14.30;83.90;;;;;;4907035;29;19927;-95
2021/06/01 17:56:00;;;;;;;;;;;14.20;84.50;;;;;;4915749;29;19926;-92
2021/06/01 17:58:27;;;;;;;;;;;14.10;84.30;;;;;;4890946;29;20017;-93
2021/06/01 18:00:54;;;;;;;;;;;14.00;84.80;;;;;;4884232;29;19934;-95
2021/06/01 18:03:23;;;;;;;;;;;13.90;84.20;;;;;;4895319;29;20306;-94
2021/06/01 18:05:54;;;;;;;;;;;13.80;87.90;;;;;;4895203;29;19951;-96
2021/06/01 18:08:47;;;;;;;;;;;13.70;90.20;;;;;;4888335;29;19937;-95
2021/06/01 18:52:36;;;;;;;;;;;12.70;99.90;;;;;;5002221;28;20273;-95
2021/06/01 19:01:22;;;;;;;;;;;12.60;99.90;;;;;;5002129;28;19926;-96
2021/06/01 19:11:51;;;;;;;;;;;12.40;99.90;;;;;;5001983;28;20005;-95
2021/06/01 19:44:08;;;;;;;;;;;11.80;99.90;;;;;;5003611;28;19925;-95
2021/06/01 19:51:46;;;;;;;;;;;11.60;99.90;;;;;;4999605;28;20357;-94
2021/06/01 19:54:19;;;;;;;;;;;11.50;99.90;;;;;;4966286;28;19930;-95
2021/06/01 19:56:47;;;;;;;;;;;11.40;99.90;;;;;;4983092;28;20269;-95
2021/06/01 19:59:15;;;;;;;;;;;11.30;99.90;;;;;;4982332;28;19926;-95
2021/06/01 20:01:43;;;;;;;;;;;11.30;99.90;;;;;;4982619;28;20361;-95
2021/06/01 20:04:10;;;;;;;;;;;11.20;99.90;;;;;;4981953;28;20284;-96
2021/06/01 20:06:38;;;;;;;;;;;11.20;99.90;;;;;;4981332;28;19926;-96
2021/06/01 20:09:06;;;;;;;;;;;11.10;99.90;;;;;;4982456;28;19926;-95
2021/06/01 20:15:02;;;;;;;;;;;11.00;99.90;;;;;;4999007;28;20030;-95
2021/06/01 20:17:33;;;;;;;;;;;10.90;99.90;;;;;;4981812;28;20460;-96
2021/06/01 20:20:04;;;;;;;;;;;10.90;99.90;;;;;;4981750;28;19932;-96
2021/06/01 20:22:31;;;;;;;;;;;10.80;99.90;;;;;;4981486;28;19926;-94
2021/06/01 20:25:02;;;;;;;;;;;10.70;99.90;;;;;;4991094;28;19930;-96
2021/06/01 20:27:29;;;;;;;;;;;10.60;99.90;;;;;;4984159;28;20257;-95
2021/06/01 20:30:03;;;;;;;;;;;10.70;99.90;;;;;;4981825;28;20387;-96
2021/06/01 20:35:21;;;;;;;;;;;10.80;99.90;;;;;;4998285;28;19925;-96
2021/06/01 20:37:49;;;;;;;;;;;10.90;99.90;;;;;;4980842;28;19974;-94
2021/06/01 20:40:18;;;;;;;;;;;10.80;99.90;;;;;;4982124;28;19925;-96
2021/06/01 20:42:47;;;;;;;;;;;10.80;99.90;;;;;;4982864;28;19933;-96
2021/06/01 20:45:16;;;;;;;;;;;10.80;99.90;;;;;;4982042;28;20018;-95
2021/06/01 20:47:44;;;;;;;;;;;10.80;99.90;;;;;;5002745;28;19969;-96
2021/06/01 20:50:14;;;;;;;;;;;10.80;99.90;;;;;;5020054;28;19910;-96
2021/06/01 20:52:41;;;;;;;;;;;10.70;99.90;;;;;;4982692;28;20004;-95
2021/06/01 20:55:12;;;;;;;;;;;10.70;99.90;;;;;;4984100;28;19926;-94
2021/06/01 20:57:43;;;;;;;;;;;10.80;99.90;;;;;;4984455;28;19930;-96
2021/06/01 21:00:10;;;;;;;;;;;10.80;99.90;;;;;;4982999;28;19930;-96
2021/06/01 21:02:41;;;;;;;;;;;10.80;99.90;;;;;;4984326;28;19925;-96
2021/06/01 21:05:10;;;;;;;;;;;10.70;99.90;;;;;;4983991;28;19980;-96
2021/06/01 21:07:44;;;;;;;;;;;10.80;99.90;;;;;;4982437;28;19930;-94
2021/06/01 21:10:12;;;;;;;;;;;10.70;99.90;;;;;;4983221;28;19926;-94
2021/06/01 21:12:41;;;;;;;;;;;10.70;99.90;;;;;;4985039;28;19926;-94
2021/06/01 21:15:09;;;;;;;;;;;10.70;99.90;;;;;;4981167;28;19926;-95
2021/06/01 21:17:37;;;;;;;;;;;10.70;99.90;;;;;;4980266;28;19987;-96
2021/06/01 21:20:08;;;;;;;;;;;10.70;99.90;;;;;;4980269;28;19926;-95
2021/06/01 21:22:36;;;;;;;;;;;10.70;99.90;;;;;;4980538;28;19925;-96
2021/06/01 21:25:07;;;;;;;;;;;10.70;99.90;;;;;;4984534;28;20285;-96
2021/06/01 21:27:34;;;;;;;;;;;10.80;99.90;;;;;;5000022;28;19926;-96
2021/06/01 21:30:02;;;;;;;;;;;10.80;99.90;;;;;;4991254;28;19932;-95
2021/06/01 21:32:33;;;;;;;;;;;10.80;99.90;;;;;;4990299;28;19993;-96
2021/06/01 21:35:08;;;;;;;;;;;10.90;99.90;;;;;;4995869;28;20016;-96
2021/06/01 21:37:41;;;;;;;;;;;10.90;99.90;;;;;;4995246;28;19954;-96
2021/06/01 21:40:09;;;;;;;;;;;10.90;99.90;;;;;;4985589;28;19933;-96
2021/06/01 21:42:36;;;;;;;;;;;10.90;99.90;;;;;;4981777;28;19926;-96
2021/06/01 21:45:13;;;;;;;;;;;10.90;99.90;;;;;;4980016;28;20361;-96
2021/06/01 21:47:48;;;;;;;;;;;10.80;99.90;;;;;;4979606;28;19937;-96
2021/06/01 21:50:20;;;;;;;;;;;10.90;99.90;;;;;;4980063;28;20367;-95
2021/06/01 21:52:48;;;;;;;;;;;10.80;99.90;;;;;;4980348;28;19930;-95
2021/06/01 21:55:19;;;;;;;;;;;10.80;99.90;;;;;;4979635;28;19933;-96
2021/06/01 21:57:46;;;;;;;;;;;10.80;99.90;;;;;;4979994;28;19932;-95
2021/06/01 22:00:16;;;;;;;;;;;10.70;99.90;;;;;;4979659;28;19937;-96
2021/06/01 22:02:44;;;;;;;;;;;10.70;99.90;;;;;;4979932;28;19926;-96
2021/06/01 22:05:12;;;;;;;;;;;10.60;99.90;;;;;;4980569;28;19926;-96
2021/06/01 22:07:40;;;;;;;;;;;10.60;99.90;;;;;;4978876;28;20385;-95
2021/06/01 22:10:08;;;;;;;;;;;10.60;99.90;;;;;;4979773;28;19932;-96
2021/06/01 22:12:39;;;;;;;;;;;10.50;99.90;;;;;;4979565;28;20354;-96
2021/06/01 22:15:25;;;;;;;;;;;10.50;99.90;;;;;;4979919;28;20268;-95
2021/06/01 22:17:52;;;;;;;;;;;10.50;99.90;;;;;;4980027;28;19933;-95
2021/06/01 22:20:20;;;;;;;;;;;10.50;99.90;;;;;;4980929;28;19932;-96
2021/06/01 22:22:47;;;;;;;;;;;10.50;99.90;;;;;;4980377;28;19933;-96
2021/06/01 22:25:15;;;;;;;;;;;10.40;99.90;;;;;;4981445;28;19926;-96
2021/06/01 22:27:43;;;;;;;;;;;10.40;99.90;;;;;;4979704;28;19925;-96
2021/06/01 22:30:10;;;;;;;;;;;10.30;99.90;;;;;;4980044;28;19952;-96
2021/06/01 22:32:38;;;;;;;;;;;10.30;99.90;;;;;;4979521;28;19926;-96
2021/06/01 22:35:06;;;;;;;;;;;10.10;99.90;;;;;;4979767;28;19925;-96
2021/06/01 22:37:33;;;;;;;;;;;9.90;99.90;;;;;;4980389;28;19933;-96
2021/06/01 22:40:00;;;;;;;;;;;9.80;99.90;;;;;;5002890;28;19914;-96
2021/06/01 22:42:28;;;;;;;;;;;9.60;99.90;;;;;;4999140;28;19972;-95
2021/06/01 22:44:55;;;;;;;;;;;9.50;99.90;;;;;;4980198;28;20016;-96